Time;durP1;ratioP1;P1;durP2;ratioP2;P2;SDS_P1;SDS_P2;PMS_P1;PMS_P2;Temp;Humidity;BMP_temperature;BMP_pressure;BME280_temperature;BME280_humidity;BME280_pressure;Samples;Min_cycle;Max_cycle;Signal;HPM_P1;HPM_P2
2023/04/08 00:00:19;;;;;;;21.10;14.00;;;;;;;5.13;100.00;101530.31;4975792;28;20202;-73
2023/04/08 00:02:50;;;;;;;25.05;18.60;;;;;;;5.08;100.00;101530.72;4985167;28;20214;-73
2023/04/08 00:05:21;;;;;;;26.10;14.43;;;;;;;5.16;100.00;101535.34;4972649;28;20198;-74
2023/04/08 00:07:57;;;;;;;25.17;17.25;;;;;;;5.09;100.00;101537.78;4978661;28;20252;-73
2023/04/08 00:10:33;;;;;;;29.52;18.38;;;;;;;5.08;100.00;101540.63;4972366;28;20196;-73
2023/04/08 00:13:03;;;;;;;40.20;18.48;;;;;;;5.08;100.00;101533.41;4975268;28;20196;-73
2023/04/08 00:15:34;;;;;;;37.15;19.35;;;;;;;5.13;100.00;101549.09;4974525;28;20229;-73
2023/04/08 00:18:06;;;;;;;33.13;19.67;;;;;;;5.07;100.00;101541.63;4980803;28;20308;-72
2023/04/08 00:20:37;;;;;;;29.67;18.05;;;;;;;5.10;100.00;101546.69;4954896;28;20210;-74
2023/04/08 00:23:10;;;;;;;31.33;18.85;;;;;;;5.13;100.00;101546.41;4974063;28;20225;-73
2023/04/08 00:25:42;;;;;;;32.05;20.35;;;;;;;5.20;100.00;101548.31;4981505;28;20206;-73
2023/04/08 00:28:13;;;;;;;39.35;19.67;;;;;;;5.14;100.00;101540.00;4984320;28;20228;-73
2023/04/08 00:30:44;;;;;;;40.70;21.67;;;;;;;5.11;100.00;101538.50;4982889;28;20226;-73
2023/04/08 00:33:15;;;;;;;36.55;21.50;;;;;;;5.14;100.00;101542.69;4981877;28;20550;-73
2023/04/08 00:35:46;;;;;;;36.35;20.45;;;;;;;5.13;100.00;101546.41;4980675;28;20236;-73
2023/04/08 00:38:19;;;;;;;35.65;20.45;;;;;;;5.17;100.00;101547.78;4989379;28;20217;-73
2023/04/08 00:40:52;;;;;;;40.25;22.23;;;;;;;5.09;100.00;101550.34;4973546;28;20228;-73
2023/04/08 00:43:24;;;;;;;42.70;21.88;;;;;;;5.24;100.00;101549.69;4981305;28;20223;-73
2023/04/08 00:45:54;;;;;;;43.85;24.08;;;;;;;5.16;100.00;101540.72;4979597;28;20604;-73
2023/04/08 00:48:25;;;;;;;38.17;19.35;;;;;;;5.18;100.00;101539.56;4989699;28;20249;-73
2023/04/08 00:50:55;;;;;;;42.38;23.13;;;;;;;5.13;100.00;101541.03;4987427;28;20210;-73
2023/04/08 00:53:25;;;;;;;42.20;22.55;;;;;;;5.10;100.00;101541.31;4990822;28;20198;-74
2023/04/08 00:56:00;;;;;;;34.47;20.83;;;;;;;5.19;100.00;101540.41;4977511;28;20214;-74
2023/04/08 00:58:31;;;;;;;36.17;20.80;;;;;;;5.10;100.00;101534.13;4981437;28;20225;-72
2023/04/08 01:01:07;;;;;;;47.97;24.90;;;;;;;5.13;100.00;101536.47;4988094;28;20202;-73
2023/04/08 01:03:48;;;;;;;43.47;23.10;;;;;;;5.15;100.00;101526.47;4975057;28;20230;-73
2023/04/08 01:06:30;;;;;;;48.53;23.90;;;;;;;5.16;100.00;101530.00;4974709;28;20296;-73
2023/04/08 01:09:05;;;;;;;39.85;23.70;;;;;;;5.15;100.00;101539.03;4989773;28;20237;-73
2023/04/08 01:11:39;;;;;;;39.30;23.23;;;;;;;5.16;100.00;101546.09;4975431;28;20197;-74
2023/04/08 01:14:12;;;;;;;43.50;23.77;;;;;;;5.15;100.00;101545.25;4982502;28;20209;-73
2023/04/08 01:16:43;;;;;;;40.75;21.98;;;;;;;5.17;100.00;101547.78;4959589;28;20201;-72
2023/04/08 01:19:23;;;;;;;59.70;24.50;;;;;;;5.13;100.00;101541.03;4978503;28;20217;-73
2023/04/08 01:21:58;;;;;;;42.90;22.65;;;;;;;5.16;100.00;101546.09;4977887;28;20194;-73
2023/04/08 01:24:33;;;;;;;43.58;24.50;;;;;;;5.18;100.00;101552.16;4970278;28;20299;-73
2023/04/08 01:27:07;;;;;;;45.47;23.45;;;;;;;5.17;100.00;101553.16;4971410;28;20268;-73
2023/04/08 01:29:38;;;;;;;51.55;24.45;;;;;;;5.09;100.00;101548.50;4990827;28;20232;-72
2023/04/08 01:32:11;;;;;;;52.45;25.90;;;;;;;5.17;100.00;101558.50;4976334;28;20214;-73
2023/04/08 01:34:43;;;;;;;42.95;22.35;;;;;;;5.16;100.00;101554.13;4976063;28;20288;-73
2023/04/08 01:37:16;;;;;;;48.85;22.88;;;;;;;5.19;100.00;101554.66;4974545;28;20197;-73
2023/04/08 01:39:49;;;;;;;42.65;22.55;;;;;;;5.17;100.00;101558.50;4974845;28;20237;-72
2023/04/08 01:42:24;;;;;;;42.03;23.77;;;;;;;5.18;100.00;101554.84;4974895;28;20269;-72
2023/04/08 01:45:00;;;;;;;44.67;23.33;;;;;;;5.16;100.00;101548.78;4976071;28;20218;-73
2023/04/08 01:47:32;;;;;;;54.20;24.33;;;;;;;5.15;100.00;101558.66;4983766;28;20204;-73
2023/04/08 01:50:03;;;;;;;36.72;19.65;;;;;;;5.11;100.00;101569.84;4981090;28;20317;-73
2023/04/08 01:52:37;;;;;;;54.22;23.92;;;;;;;5.13;100.00;101575.91;4986082;28;20204;-73
2023/04/08 01:55:09;;;;;;;48.88;25.92;;;;;;;5.12;100.00;101572.38;4974174;28;20191;-73
2023/04/08 01:57:48;;;;;;;45.85;25.00;;;;;;;5.11;100.00;101562.63;4986395;28;20209;-73
2023/04/08 02:00:22;;;;;;;52.80;26.00;;;;;;;5.16;100.00;101560.34;4981674;28;20233;-73
2023/04/08 02:02:55;;;;;;;52.15;24.67;;;;;;;5.29;100.00;101557.28;4967999;28;20198;-73
2023/04/08 02:05:25;;;;;;;37.25;23.70;;;;;;;5.22;100.00;101559.75;4969380;28;20214;-74
2023/04/08 02:07:56;;;;;;;39.47;22.95;;;;;;;5.26;100.00;101552.22;4985598;28;20215;-74
2023/04/08 02:10:28;;;;;;;38.28;23.77;;;;;;;5.29;100.00;101557.28;4987621;28;20204;-73
2023/04/08 02:13:02;;;;;;;45.47;25.00;;;;;;;5.21;100.00;101552.69;4973102;28;20202;-71
2023/04/08 02:15:39;;;;;;;46.00;24.75;;;;;;;5.28;100.00;101569.00;4974528;28;20604;-72
2023/04/08 02:18:14;;;;;;;47.50;23.00;;;;;;;5.20;100.00;101579.66;4970914;28;20704;-73
2023/04/08 02:20:54;;;;;;;40.55;24.38;;;;;;;5.22;100.00;101572.31;4961822;28;20260;-73
2023/04/08 02:23:28;;;;;;;38.45;20.63;;;;;;;5.34;100.00;101580.97;4974246;28;20200;-73
2023/04/08 02:25:59;;;;;;;43.83;25.58;;;;;;;5.23;100.00;101584.72;4970411;28;20258;-73
2023/04/08 02:28:31;;;;;;;42.22;23.17;;;;;;;5.23;100.00;101590.09;4982884;28;20226;-74
2023/04/08 02:31:03;;;;;;;49.50;22.00;;;;;;;5.32;100.00;101583.00;4978153;28;20557;-73
2023/04/08 02:33:38;;;;;;;51.90;25.33;;;;;;;5.31;100.00;101576.78;4973456;28;20247;-73
2023/04/08 02:36:10;;;;;;;45.22;22.67;;;;;;;5.29;100.00;101583.28;4967439;28;20618;-73
2023/04/08 02:38:40;;;;;;;42.60;25.10;;;;;;;5.22;100.00;101588.41;4974295;28;20213;-72
2023/04/08 02:41:10;;;;;;;49.35;26.40;;;;;;;5.24;100.00;101592.63;4971703;28;20205;-73
2023/04/08 02:43:42;;;;;;;43.40;21.65;;;;;;;5.25;100.00;101598.84;4972488;28;20558;-74
2023/04/08 02:46:14;;;;;;;52.47;23.50;;;;;;;5.22;100.00;101588.41;4971857;28;20535;-73
2023/04/08 02:48:45;;;;;;;49.53;23.98;;;;;;;5.28;100.00;101592.34;4991456;28;20226;-73
2023/04/08 02:51:17;;;;;;;43.80;24.90;;;;;;;5.23;100.00;101595.44;4986074;28;20232;-74
2023/04/08 02:53:48;;;;;;;48.65;24.65;;;;;;;5.22;100.00;101599.16;4981244;28;20204;-73
2023/04/08 02:56:18;;;;;;;44.97;23.77;;;;;;;5.26;100.00;101589.81;4973571;28;20206;-73
2023/04/08 02:58:51;;;;;;;49.13;25.15;;;;;;;5.49;100.00;101601.78;4986104;28;20238;-73
2023/04/08 03:01:21;;;;;;;47.42;26.48;;;;;;;5.31;100.00;101603.63;5004071;28;20209;-73
2023/04/08 03:03:51;;;;;;;60.03;23.73;;;;;;;5.28;100.00;101603.09;4988099;28;20269;-73
2023/04/08 03:06:22;;;;;;;48.88;24.83;;;;;;;5.29;100.00;101605.59;4988078;28;20213;-73
2023/04/08 03:08:53;;;;;;;48.78;22.23;;;;;;;5.28;100.00;101598.53;4984092;28;20238;-73
2023/04/08 03:11:24;;;;;;;39.70;23.50;;;;;;;5.30;100.00;101595.72;4970430;28;20187;-74
2023/04/08 03:13:57;;;;;;;46.72;23.55;;;;;;;5.32;100.00;101605.31;4973860;28;20199;-73
2023/04/08 03:16:27;;;;;;;39.63;23.17;;;;;;;5.25;100.00;101612.25;4971742;28;20561;-72
2023/04/08 03:18:58;;;;;;;38.20;22.40;;;;;;;5.28;100.00;101608.44;4973943;28;20213;-73
2023/04/08 03:21:31;;;;;;;47.33;24.95;;;;;;;5.26;100.00;101616.63;4969391;28;20712;-72
2023/04/08 03:24:01;;;;;;;49.67;23.90;;;;;;;5.36;100.00;101621.94;4980094;28;20569;-72
2023/04/08 03:26:32;;;;;;;44.80;23.52;;;;;;;5.29;100.00;101619.00;4971401;28;20269;-73
2023/04/08 03:29:05;;;;;;;49.58;24.38;;;;;;;5.26;100.00;101611.28;4974745;28;20218;-73
2023/04/08 03:31:35;;;;;;;42.67;23.65;;;;;;;5.28;100.00;101613.81;4972924;28;20206;-74
2023/04/08 03:34:08;;;;;;;44.90;24.70;;;;;;;5.26;100.00;101613.97;4975774;28;20647;-73
2023/04/08 03:36:39;;;;;;;38.05;24.02;;;;;;;5.30;100.00;101619.84;4976485;28;20193;-73
2023/04/08 03:39:09;;;;;;;43.17;21.45;;;;;;;5.30;100.00;101628.75;4981129;28;20226;-73
2023/04/08 03:41:40;;;;;;;56.88;25.42;;;;;;;5.27;100.00;101617.50;4964656;28;20210;-72
2023/04/08 03:44:13;;;;;;;48.80;26.00;;;;;;;5.27;100.00;101621.03;4984032;28;20206;-73
2023/04/08 03:46:44;;;;;;;55.20;25.05;;;;;;;5.30;100.00;101623.38;4961330;28;20247;-73
2023/04/08 03:49:14;;;;;;;50.53;24.27;;;;;;;5.32;100.00;101632.16;4985487;28;20228;-72
2023/04/08 03:51:45;;;;;;;42.10;24.10;;;;;;;5.25;100.00;101629.22;4966151;28;20202;-71
2023/04/08 03:54:15;;;;;;;47.67;26.13;;;;;;;5.20;100.00;101625.28;4972237;28;20204;-73
2023/04/08 03:56:45;;;;;;;48.67;27.80;;;;;;;5.24;100.00;101623.97;4972352;28;20225;-72
2023/04/08 03:59:18;;;;;;;50.90;25.13;;;;;;;5.19;100.00;101626.28;4972117;28;20225;-72
2023/04/08 04:01:52;;;;;;;51.05;25.88;;;;;;;5.35;100.00;101634.53;4972021;28;20212;-73
2023/04/08 04:04:23;;;;;;;47.70;24.73;;;;;;;5.32;100.00;101633.97;4953368;28;20278;-73
2023/04/08 04:06:55;;;;;;;49.40;21.88;;;;;;;5.33;100.00;101632.97;4965557;28;20210;-73
2023/04/08 04:09:27;;;;;;;57.35;25.20;;;;;;;5.31;100.00;101635.81;4971776;28;20229;-74
2023/04/08 04:11:58;;;;;;;46.30;27.25;;;;;;;5.32;100.00;101650.94;4973812;28;20208;-73
2023/04/08 04:14:30;;;;;;;54.00;26.58;;;;;;;5.31;100.00;101645.72;4974465;28;20224;-73
2023/04/08 04:17:00;;;;;;;58.28;26.58;;;;;;;5.31;100.00;101657.28;4974116;28;20193;-72
2023/04/08 04:19:31;;;;;;;51.35;27.05;;;;;;;5.33;100.00;101651.75;4972145;28;20227;-72
2023/04/08 04:22:02;;;;;;;49.85;26.95;;;;;;;5.38;100.00;101661.06;4970846;28;20218;-72
2023/04/08 04:24:34;;;;;;;49.15;28.33;;;;;;;5.43;100.00;101666.81;4967445;28;20195;-73
2023/04/08 04:27:04;;;;;;;61.83;28.27;;;;;;;5.40;100.00;101661.75;4971749;28;20709;-72
2023/04/08 04:29:38;;;;;;;50.33;24.70;;;;;;;5.35;100.00;101658.69;4973691;28;20655;-73
2023/04/08 04:32:08;;;;;;;54.60;27.45;;;;;;;5.34;100.00;101656.13;4952931;28;20212;-73
2023/04/08 04:34:39;;;;;;;64.90;28.55;;;;;;;5.34;100.00;101662.34;4967699;28;20202;-72
2023/04/08 04:37:10;;;;;;;53.53;26.30;;;;;;;5.37;100.00;101664.75;4986243;28;20205;-73
2023/04/08 04:39:42;;;;;;;44.35;22.52;;;;;;;5.45;100.00;101662.16;4972279;28;20241;-73
2023/04/08 04:42:12;;;;;;;49.10;26.77;;;;;;;5.73;100.00;101668.31;4971681;28;20249;-73
2023/04/08 04:44:45;;;;;;;53.97;26.23;;;;;;;5.80;100.00;101679.31;4972288;28;20218;-73
2023/04/08 04:47:16;;;;;;;52.78;26.00;;;;;;;5.54;100.00;101679.19;4964794;28;20220;-73
2023/04/08 04:49:48;;;;;;;43.13;24.33;;;;;;;5.49;100.00;101687.69;4966743;28;20620;-74
2023/04/08 04:52:18;;;;;;;49.17;25.55;;;;;;;5.48;100.00;101683.31;4956049;28;20291;-72
2023/04/08 04:54:51;;;;;;;50.35;28.70;;;;;;;5.46;100.00;101679.97;4955573;28;20617;-72
2023/04/08 04:57:21;;;;;;;45.25;26.08;;;;;;;5.48;100.00;101686.00;4970601;28;20194;-73
2023/04/08 04:59:53;;;;;;;55.72;29.42;;;;;;;5.55;100.00;101689.78;4970232;28;20222;-71
2023/04/08 05:02:23;;;;;;;46.85;26.40;;;;;;;5.46;100.00;101690.69;4964729;28;20205;-73
2023/04/08 05:04:55;;;;;;;46.00;27.75;;;;;;;5.44;100.00;101695.34;4972312;28;20198;-71
2023/04/08 05:07:27;;;;;;;47.65;26.00;;;;;;;5.46;100.00;101692.53;4971694;28;20222;-71
2023/04/08 05:09:58;;;;;;;48.25;27.02;;;;;;;5.40;100.00;101693.97;4969020;28;20227;-73
2023/04/08 05:12:31;;;;;;;51.92;27.55;;;;;;;5.41;100.00;101714.47;4986111;28;20202;-73
2023/04/08 05:15:06;;;;;;;46.13;26.65;;;;;;;5.38;100.00;101705.84;4975231;28;20623;-73
2023/04/08 05:17:37;;;;;;;57.50;28.88;;;;;;;5.41;100.00;101709.09;4973332;28;20202;-73
2023/04/08 05:20:10;;;;;;;48.80;28.20;;;;;;;5.45;100.00;101718.53;4987181;28;20582;-74
2023/04/08 05:22:45;;;;;;;52.30;24.58;;;;;;;5.42;100.00;101716.13;4976709;28;20206;-73
2023/04/08 05:25:16;;;;;;;45.58;27.45;;;;;;;5.46;100.00;101717.53;4970718;28;20202;-73
2023/04/08 05:27:47;;;;;;;55.75;27.55;;;;;;;5.45;100.00;101717.69;4975660;28;20560;-72
2023/04/08 05:30:19;;;;;;;56.20;27.58;;;;;;;5.56;100.00;101715.66;4986157;28;20213;-72
2023/04/08 05:32:49;;;;;;;54.03;28.95;;;;;;;5.58;100.00;101713.66;4983074;28;20201;-74
2023/04/08 05:35:20;;;;;;;53.15;27.55;;;;;;;5.57;100.00;101711.09;4979820;28;20263;-73
2023/04/08 05:37:51;;;;;;;55.92;28.33;;;;;;;5.62;100.00;101724.91;4973006;28;20591;-73
2023/04/08 05:40:22;;;;;;;60.13;26.85;;;;;;;5.61;100.00;101725.94;4975111;28;20217;-74
2023/04/08 05:42:51;;;;;;;44.22;26.15;;;;;;;5.63;100.00;101726.63;4970124;28;20261;-72
2023/04/08 05:45:23;;;;;;;62.25;29.17;;;;;;;5.85;100.00;101734.28;4973970;28;20202;-73
2023/04/08 05:47:55;;;;;;;41.15;28.23;;;;;;;5.74;100.00;101739.84;4975421;28;20206;-73
2023/04/08 05:50:25;;;;;;;56.83;26.10;;;;;;;5.74;100.00;101739.84;4974061;28;20288;-73
2023/04/08 05:52:55;;;;;;;68.00;29.98;;;;;;;5.65;100.00;101756.88;4973622;28;20312;-72
2023/04/08 05:55:25;;;;;;;57.60;29.20;;;;;;;5.73;100.00;101750.72;4973711;28;20253;-73
2023/04/08 05:57:55;;;;;;;64.47;31.35;;;;;;;5.73;100.00;101765.00;4974127;28;20193;-73
2023/04/08 06:00:27;;;;;;;54.17;28.30;;;;;;;5.81;100.00;101756.22;4980793;28;20204;-73
2023/04/08 06:02:57;;;;;;;47.78;25.13;;;;;;;5.85;100.00;101762.97;4984249;28;20301;-73
2023/04/08 06:05:28;;;;;;;55.88;27.40;;;;;;;5.87;100.00;101755.63;4957985;28;20221;-74
2023/04/08 06:07:59;;;;;;;56.75;31.00;;;;;;;5.76;100.00;101764.69;4982981;28;20222;-74
2023/04/08 06:10:29;;;;;;;74.38;37.10;;;;;;;5.80;100.00;101754.53;4977352;28;20293;-73
2023/04/08 06:12:59;;;;;;;50.20;28.88;;;;;;;5.79;100.00;101758.19;4973068;28;20682;-73
2023/04/08 06:15:34;;;;;;;57.33;26.20;;;;;;;5.85;100.00;101760.28;4971584;28;20198;-72
2023/04/08 06:18:04;;;;;;;54.30;29.67;;;;;;;5.86;100.00;101760.13;4974450;28;20293;-72
2023/04/08 06:20:36;;;;;;;58.10;28.10;;;;;;;5.92;100.00;101766.78;4978379;28;20217;-73
2023/04/08 06:23:06;;;;;;;56.75;30.52;;;;;;;5.91;100.00;101763.22;4971416;28;20200;-72
2023/04/08 06:25:36;;;;;;;54.50;30.05;;;;;;;6.14;100.00;101771.72;4975216;28;20229;-73
2023/04/08 06:28:07;;;;;;;69.25;30.88;;;;;;;6.09;100.00;101766.81;4970034;28;21384;-72
2023/04/08 06:30:41;;;;;;;62.95;33.10;;;;;;;5.96;100.00;101765.47;4974545;28;20205;-72
2023/04/08 06:33:13;;;;;;;59.03;28.70;;;;;;;6.00;100.00;101766.88;4973566;28;20741;-72
2023/04/08 06:35:44;;;;;;;67.15;30.00;;;;;;;6.07;100.00;101774.16;4979646;28;20205;-73
2023/04/08 06:38:14;;;;;;;62.65;29.95;;;;;;;6.01;100.00;101784.66;4973486;28;20316;-73
2023/04/08 06:40:45;;;;;;;62.03;31.40;;;;;;;6.17;100.00;101790.22;4974794;28;20207;-73
2023/04/08 06:43:15;;;;;;;68.97;30.48;;;;;;;6.35;100.00;101788.41;4976046;28;20275;-72
2023/04/08 06:45:47;;;;;;;54.45;30.60;;;;;;;6.42;100.00;101786.81;4962638;28;20200;-72
2023/04/08 06:48:19;;;;;;;61.67;29.48;;;;;;;6.53;100.00;101799.19;4971124;28;20252;-74
2023/04/08 06:50:50;;;;;;;63.95;28.88;;;;;;;6.54;100.00;101803.53;4971194;28;20241;-72
2023/04/08 06:53:21;;;;;;;51.10;29.20;;;;;;;6.50;100.00;101808.38;4983081;28;20202;-72
2023/04/08 06:55:53;;;;;;;57.30;30.35;;;;;;;6.52;100.00;101811.78;4971750;28;20256;-72
2023/04/08 06:58:24;;;;;;;58.53;28.67;;;;;;;6.62;100.00;101818.91;4959664;28;20843;-72
2023/04/08 07:00:57;;;;;;;48.25;26.02;;;;;;;6.53;100.00;101818.00;4977874;28;20301;-72
2023/04/08 07:03:29;;;;;;;54.33;27.67;;;;;;;6.49;100.00;101822.81;4970147;28;20275;-73
2023/04/08 07:05:59;;;;;;;50.28;29.60;;;;;;;6.50;100.00;101827.19;4969059;28;20579;-73
2023/04/08 07:08:31;;;;;;;49.00;28.85;;;;;;;6.53;100.00;101821.50;4983466;28;20236;-72
2023/04/08 07:11:01;;;;;;;46.38;27.27;;;;;;;6.60;100.00;101823.59;4979041;28;20693;-71
2023/04/08 07:13:31;;;;;;;47.30;26.05;;;;;;;6.68;100.00;101816.44;4988975;28;20681;-73
2023/04/08 07:16:03;;;;;;;56.22;26.85;;;;;;;6.74;100.00;101825.72;4993833;28;20610;-73
2023/04/08 07:18:33;;;;;;;52.63;29.10;;;;;;;6.82;100.00;101823.97;4994110;28;20228;-73
2023/04/08 07:21:04;;;;;;;46.63;25.95;;;;;;;6.84;100.00;101832.72;4979510;28;20205;-72
2023/04/08 07:23:34;;;;;;;45.20;24.63;;;;;;;6.82;100.00;101834.75;4974565;28;20210;-71
2023/04/08 07:26:05;;;;;;;51.70;27.73;;;;;;;6.97;100.00;101835.84;4984927;28;20269;-72
2023/04/08 07:28:35;;;;;;;50.38;27.23;;;;;;;7.05;100.00;101834.25;4994026;28;20233;-72
2023/04/08 07:31:15;;;;;;;49.80;26.48;;;;;;;7.18;100.00;101829.28;4978096;28;20262;-73
2023/04/08 07:33:47;;;;;;;54.00;26.30;;;;;;;7.15;100.00;101837.69;4978898;28;20214;-73
2023/04/08 07:36:17;;;;;;;41.88;25.55;;;;;;;7.05;100.00;101843.16;4997309;28;20196;-73
2023/04/08 07:38:47;;;;;;;49.88;26.38;;;;;;;7.13;100.00;101845.06;4987104;28;20220;-72
2023/04/08 07:41:17;;;;;;;39.58;23.58;;;;;;;7.23;100.00;101854.75;4999601;28;21166;-73
2023/04/08 07:43:49;;;;;;;57.20;26.95;;;;;;;7.25;100.00;101854.59;4977293;28;20294;-73
2023/04/08 07:46:21;;;;;;;51.22;25.63;;;;;;;7.29;100.00;101856.81;4979493;28;20222;-73
2023/04/08 07:48:53;;;;;;;53.72;30.50;;;;;;;7.48;100.00;101854.91;4995228;28;20541;-73
2023/04/08 07:51:23;;;;;;;46.10;27.73;;;;;;;7.52;100.00;101858.97;4974274;28;20200;-73
2023/04/08 07:53:56;;;;;;;48.13;26.90;;;;;;;7.49;100.00;101867.38;4972573;28;20206;-73
2023/04/08 07:56:27;;;;;;;65.78;37.33;;;;;;;7.43;100.00;101871.53;4970129;28;20198;-72
2023/04/08 07:58:58;;;;;;;60.15;34.45;;;;;;;7.31;100.00;101862.88;4989511;28;20587;-71
2023/04/08 08:01:30;;;;;;;68.35;41.35;;;;;;;7.36;100.00;101862.38;4971277;28;20204;-73
2023/04/08 08:04:00;;;;;;;73.47;54.38;;;;;;;7.40;100.00;101861.94;4967574;28;20206;-73
2023/04/08 08:06:31;;;;;;;57.60;31.88;;;;;;;7.58;100.00;101858.34;4970131;28;20193;-73
2023/04/08 08:09:01;;;;;;;48.13;27.20;;;;;;;7.69;100.00;101860.78;4966236;28;20323;-73
2023/04/08 08:11:31;;;;;;;44.70;25.80;;;;;;;7.82;100.00;101872.78;4970540;28;20667;-74
2023/04/08 08:14:03;;;;;;;48.60;27.70;;;;;;;7.90;100.00;101871.97;4968512;28;20206;-73
2023/04/08 08:16:37;;;;;;;47.47;27.42;;;;;;;7.97;100.00;101870.34;4968965;28;20283;-73
2023/04/08 08:19:07;;;;;;;48.20;23.38;;;;;;;8.01;100.00;101865.47;4964760;28;20710;-72
2023/04/08 08:21:40;;;;;;;44.95;24.73;;;;;;;7.89;100.00;101864.06;4966832;28;20636;-73
2023/04/08 08:24:09;;;;;;;45.65;26.58;;;;;;;8.06;100.00;101873.91;4973858;28;20249;-73
2023/04/08 08:26:39;;;;;;;45.90;24.23;;;;;;;8.08;100.00;101877.31;4988148;28;20256;-73
2023/04/08 08:29:10;;;;;;;44.47;26.25;;;;;;;8.27;99.30;101882.44;4987241;28;20716;-74
2023/04/08 08:31:41;;;;;;;42.92;25.77;;;;;;;8.59;98.55;101884.41;4992740;28;20234;-73
2023/04/08 08:34:12;;;;;;;40.20;23.02;;;;;;;8.75;97.81;101886.28;4965297;28;20202;-74
2023/04/08 08:36:43;;;;;;;39.55;24.88;;;;;;;8.76;95.86;101888.00;4969596;28;20210;-72
2023/04/08 08:39:14;;;;;;;35.20;22.40;;;;;;;8.79;96.16;101896.59;4972490;28;20777;-72
2023/04/08 08:41:43;;;;;;;39.55;23.13;;;;;;;8.50;96.80;101893.47;4967437;28;20206;-73
2023/04/08 08:44:14;;;;;;;48.40;23.75;;;;;;;8.77;96.97;101895.06;4970354;28;20197;-73
2023/04/08 08:46:49;;;;;;;49.67;28.48;;;;;;;8.81;95.24;101891.03;4968728;28;20205;-74
2023/04/08 08:49:19;;;;;;;44.33;27.23;;;;;;;8.75;96.24;101894.38;4972419;28;20221;-75
2023/04/08 08:51:50;;;;;;;46.22;28.05;;;;;;;8.85;95.51;101890.53;4977654;28;20662;-74
2023/04/08 08:54:21;;;;;;;41.25;25.05;;;;;;;9.06;94.24;101896.25;4975847;28;20229;-73
2023/04/08 08:56:53;;;;;;;39.85;23.15;;;;;;;9.15;93.62;101900.66;4976686;28;20224;-74
2023/04/08 08:59:23;;;;;;;40.28;25.00;;;;;;;9.15;92.75;101906.06;4971299;28;20214;-73
2023/04/08 09:01:55;;;;;;;43.00;22.70;;;;;;;9.01;94.48;101909.44;4968053;28;20216;-74
2023/04/08 09:04:25;;;;;;;40.85;22.92;;;;;;;9.20;93.99;101912.84;4966646;28;20204;-73
2023/04/08 09:07:10;;;;;;;39.50;22.67;;;;;;;8.77;93.97;101917.50;4982579;28;20219;-72
2023/04/08 09:09:58;;;;;;;40.03;23.48;;;;;;;8.57;95.10;101921.47;4990181;28;20224;-71
2023/04/08 09:12:30;;;;;;;39.75;24.45;;;;;;;8.75;95.00;101919.53;4989512;28;20201;-72
2023/04/08 09:15:08;;;;;;;44.47;25.23;;;;;;;8.62;94.82;101925.38;4979906;28;20652;-74
2023/04/08 09:17:41;;;;;;;41.67;23.23;;;;;;;8.81;94.33;101932.34;4974836;28;20663;-73
2023/04/08 09:20:13;;;;;;;38.90;22.23;;;;;;;8.86;93.39;101921.88;4973225;28;20220;-74
2023/04/08 09:23:02;;;;;;;40.13;23.50;;;;;;;8.88;93.68;101936.06;4972957;28;20224;-71
2023/04/08 09:25:32;;;;;;;46.72;23.70;;;;;;;9.03;94.05;101933.56;4989223;28;20646;-72
2023/04/08 09:28:05;;;;;;;39.90;24.20;;;;;;;9.21;93.94;101944.22;4972602;28;20288;-72
2023/04/08 09:30:36;;;;;;;36.75;25.08;;;;;;;9.16;92.03;101945.56;4970770;28;20201;-72
2023/04/08 09:33:08;;;;;;;42.40;24.02;;;;;;;9.40;92.04;101941.16;4973026;28;20288;-73
2023/04/08 09:35:37;;;;;;;42.83;23.40;;;;;;;9.12;91.87;101941.50;4972868;28;20292;-73
2023/04/08 09:38:07;;;;;;;45.75;21.98;;;;;;;9.07;91.20;101951.97;4973643;28;20579;-72
2023/04/08 09:40:40;;;;;;;38.17;24.05;;;;;;;8.93;92.08;101949.94;4974732;28;20210;-69
2023/04/08 09:43:13;;;;;;;40.08;22.67;;;;;;;9.04;92.58;101943.38;4983578;28;20211;-71
2023/04/08 09:45:47;;;;;;;39.63;22.55;;;;;;;9.08;91.57;101953.66;4977369;28;20209;-71
2023/04/08 09:48:24;;;;;;;34.25;21.98;;;;;;;8.93;92.27;101947.22;4974114;28;20315;-72
2023/04/08 09:50:59;;;;;;;41.60;21.60;;;;;;;9.31;91.50;101951.16;4987774;28;20297;-71
2023/04/08 09:53:35;;;;;;;44.88;25.13;;;;;;;9.12;91.13;101952.31;4967808;28;20203;-71
2023/04/08 09:56:11;;;;;;;39.85;23.15;;;;;;;9.06;91.37;101952.97;4983286;28;20208;-72
2023/04/08 09:58:46;;;;;;;35.33;21.95;;;;;;;8.93;91.77;101954.47;4990761;28;20622;-71
2023/04/08 10:01:22;;;;;;;34.67;22.98;;;;;;;8.92;91.70;101953.63;4973398;28;20462;-71
2023/04/08 10:03:57;;;;;;;34.47;24.25;;;;;;;9.00;91.83;101956.38;4972861;28;20210;-71
2023/04/08 10:06:31;;;;;;;36.10;23.10;;;;;;;8.96;92.06;101960.38;4987193;28;20202;-71
2023/04/08 10:09:04;;;;;;;40.75;22.90;;;;;;;8.97;91.93;101953.13;4990027;28;20263;-71
2023/04/08 10:11:35;;;;;;;36.03;22.38;;;;;;;9.10;91.67;101957.03;4974381;28;20206;-71
2023/04/08 10:14:06;;;;;;;40.78;23.65;;;;;;;9.21;89.88;101955.00;4965649;28;20562;-72
2023/04/08 10:16:36;;;;;;;34.35;23.30;;;;;;;9.48;89.51;101960.09;4974283;28;20193;-72
2023/04/08 10:19:39;;;;;;;34.15;22.73;;;;;;;9.74;86.63;101960.75;4993396;28;20225;-72
2023/04/08 10:22:47;;;;;;;34.38;22.35;;;;;;;9.92;85.71;101966.78;4992471;28;20288;-73
2023/04/08 10:25:32;;;;;;;36.20;21.85;;;;;;;9.74;86.51;101959.91;4951327;28;20244;-72
2023/04/08 10:28:02;;;;;;;31.65;23.30;;;;;;;9.64;86.26;101960.09;4995583;28;20212;-72
2023/04/08 10:30:42;;;;;;;33.50;20.40;;;;;;;9.73;85.53;101966.34;4978361;28;20628;-71
2023/04/08 10:33:14;;;;;;;40.75;25.08;;;;;;;9.84;85.62;101961.41;4988867;28;20268;-72
2023/04/08 10:35:49;;;;;;;58.78;26.40;;;;;;;10.35;83.33;101960.13;4975332;28;20197;-71
2023/04/08 10:38:20;;;;;;;45.05;24.77;;;;;;;10.66;81.10;101962.84;4970403;28;20237;-72
2023/04/08 10:40:51;;;;;;;255.15;158.63;;;;;;;10.77;78.62;101965.19;4970330;28;20576;-73
2023/04/08 10:43:23;;;;;;;41.53;28.77;;;;;;;10.65;78.46;101961.16;4972711;28;20679;-72
2023/04/08 10:45:54;;;;;;;28.67;19.95;;;;;;;10.24;79.19;101962.38;4985651;28;20205;-72
2023/04/08 10:48:27;;;;;;;27.88;19.85;;;;;;;10.47;78.79;101949.75;4978562;28;20236;-72
2023/04/08 10:51:01;;;;;;;50.77;43.43;;;;;;;10.74;78.05;101954.72;4987034;28;20580;-72
2023/04/08 10:53:33;;;;;;;32.77;22.07;;;;;;;10.82;77.14;101954.66;4972539;28;20574;-72
2023/04/08 10:56:09;;;;;;;33.43;20.33;;;;;;;10.88;76.28;101953.97;4988979;28;20450;-72
2023/04/08 10:58:50;;;;;;;30.07;20.90;;;;;;;11.00;74.61;101956.22;4989734;28;20453;-72
2023/04/08 11:01:21;;;;;;;28.53;18.10;;;;;;;11.44;73.29;101957.25;4969865;28;20453;-71
2023/04/08 11:03:52;;;;;;;23.23;18.00;;;;;;;11.29;72.18;101953.66;4996584;28;20444;-72
2023/04/08 11:06:24;;;;;;;26.40;18.37;;;;;;;11.19;72.68;101953.06;4972692;28;20489;-74
2023/04/08 11:08:58;;;;;;;25.67;16.53;;;;;;;11.17;72.48;101955.13;4968696;28;20568;-73
2023/04/08 11:11:30;;;;;;;27.30;18.00;;;;;;;11.04;72.56;101950.28;4992032;28;20807;-73
2023/04/08 11:14:03;;;;;;;24.37;18.07;;;;;;;11.21;72.60;101953.72;4991435;28;20580;-72
2023/04/08 11:16:34;;;;;;;23.40;16.53;;;;;;;11.26;72.00;101954.03;4973129;28;20457;-72
2023/04/08 11:19:05;;;;;;;25.13;18.77;;;;;;;11.22;71.21;101958.13;5002736;28;20452;-72
2023/04/08 11:21:41;;;;;;;28.70;17.27;;;;;;;11.20;72.55;101957.44;4988596;28;20504;-71
2023/04/08 11:24:15;;;;;;;25.07;17.23;;;;;;;11.30;72.27;101955.34;4988740;28;20468;-71
2023/04/08 11:26:45;;;;;;;22.53;18.20;;;;;;;11.39;71.98;101964.25;4971908;28;20458;-70
2023/04/08 11:29:16;;;;;;;29.30;18.60;;;;;;;11.48;71.73;101958.59;4988437;28;20481;-71
2023/04/08 11:31:48;;;;;;;28.53;17.77;;;;;;;11.67;71.38;101957.22;4971482;28;20445;-70